aviador You're here:

KDTO Decoded Metar

DENTON in TX, USA
Report Time2017-04-25 05:53:00
UTC Time2017-04-25 06:35:36
Flight Rules vfr VFR
Wind160° at 16 Gusting to 21 kt
W.Decomp.*RWY 18: 14.6 kt HW 6.5 kt LCW
W.Rank160° ranks 1
Current wind is above 160° avg. (9.7)
Visibility9999 m
Phenomena:N/A
Clouds:N/A
Expected CloudBase > 3,200 ft AGL from Temp-Dew spread
CeilingNone
Temp19°C (ISA +5)
Dew Point11°C (60% RH)
AAT13.6°C
QNH1002 hPa
Density Alt1,811 ft
Elevation643 ft
Report Wrong Elevation
Raw Report
KDTO 250553Z AUTO 16016G21KT 10SM CLR 19/11 A2959 RMK AO2 SLP011
T01940111 10233 20183 402500061 58018=

Extra information for KDTO:More info

Metar Taf Metar & Taf Last 4 Metars F.Rules Stats Wind Profile Meteogram Temp Stats Airport Information Weather charts Add Link Nearby VenuesMetar ALERT Operation Metar Decoded Social comments

AIRNAV info for KDTO